sensor_id;sensor_type;location;lat;lon;timestamp;pressure;altitude;pressure_sealevel;temperature;humidity
71770;BME280;66386;52.122;5.420;2023-08-08T00:02:15;101520.75;;;13.71;97.71
71770;BME280;66386;52.122;5.420;2023-08-08T00:04:41;101515.53;;;13.72;98.00
71770;BME280;66386;52.122;5.420;2023-08-08T00:07:08;101512.03;;;13.73;98.38
71770;BME280;66386;52.122;5.420;2023-08-08T00:09:34;101509.41;;;13.75;98.43
71770;BME280;66386;52.122;5.420;2023-08-08T00:12:01;101510.19;;;13.77;98.80
71770;BME280;66386;52.122;5.420;2023-08-08T00:14:28;101513.50;;;13.81;98.82
71770;BME280;66386;52.122;5.420;2023-08-08T00:16:54;101513.41;;;13.82;98.85
71770;BME280;66386;52.122;5.420;2023-08-08T00:19:21;101507.38;;;13.83;99.02
71770;BME280;66386;52.122;5.420;2023-08-08T00:21:47;101503.03;;;13.84;98.98
71770;BME280;66386;52.122;5.420;2023-08-08T00:24:14;101506.41;;;13.86;99.14
71770;BME280;66386;52.122;5.420;2023-08-08T00:26:40;101509.81;;;13.86;99.31
71770;BME280;66386;52.122;5.420;2023-08-08T00:29:07;101504.59;;;13.88;99.20
71770;BME280;66386;52.122;5.420;2023-08-08T00:31:33;101504.59;;;13.88;99.44
71770;BME280;66386;52.122;5.420;2023-08-08T00:34:00;101506.22;;;13.90;99.65
71770;BME280;66386;52.122;5.420;2023-08-08T00:36:27;101494.97;;;13.91;99.40
71770;BME280;66386;52.122;5.420;2023-08-08T00:38:53;101494.13;;;13.91;99.67
71770;BME280;66386;52.122;5.420;2023-08-08T00:41:20;101496.78;;;13.89;99.59
71770;BME280;66386;52.122;5.420;2023-08-08T00:43:46;101497.66;;;13.88;99.58
71770;BME280;66386;52.122;5.420;2023-08-08T00:46:20;101500.31;;;13.87;99.59
71770;BME280;66386;52.122;5.420;2023-08-08T00:48:48;101495.22;;;13.85;99.78
71770;BME280;66386;52.122;5.420;2023-08-08T00:51:15;101492.63;;;13.85;99.60
71770;BME280;66386;52.122;5.420;2023-08-08T00:53:44;101488.34;;;13.84;99.53
71770;BME280;66386;52.122;5.420;2023-08-08T00:56:13;101493.53;;;13.84;99.68
71770;BME280;66386;52.122;5.420;2023-08-08T00:58:40;101491.78;;;13.85;99.68
71770;BME280;66386;52.122;5.420;2023-08-08T01:01:07;101483.19;;;13.84;99.65
71770;BME280;66386;52.122;5.420;2023-08-08T01:03:34;101480.56;;;13.86;99.76
71770;BME280;66386;52.122;5.420;2023-08-08T01:06:28;101483.19;;;13.84;100.00
71770;BME280;66386;52.122;5.420;2023-08-08T01:09:09;101484.03;;;13.85;100.00
71770;BME280;66386;52.122;5.420;2023-08-08T01:11:40;101470.22;;;13.86;100.00
71770;BME280;66386;52.122;5.420;2023-08-08T01:14:08;101483.16;;;13.86;99.99
71770;BME280;66386;52.122;5.420;2023-08-08T01:16:35;101478.81;;;13.86;100.00
71770;BME280;66386;52.122;5.420;2023-08-08T01:19:03;101483.09;;;13.87;100.00
71770;BME280;66386;52.122;5.420;2023-08-08T01:21:35;101492.50;;;13.88;100.00
71770;BME280;66386;52.122;5.420;2023-08-08T01:24:22;101488.19;;;13.89;100.00
71770;BME280;66386;52.122;5.420;2023-08-08T01:26:50;101479.56;;;13.88;100.00
71770;BME280;66386;52.122;5.420;2023-08-08T01:29:16;101478.75;;;13.88;100.00
71770;BME280;66386;52.122;5.420;2023-08-08T01:31:43;101477.91;;;13.87;100.00
71770;BME280;66386;52.122;5.420;2023-08-08T01:34:10;101478.81;;;13.86;100.00
71770;BME280;66386;52.122;5.420;2023-08-08T01:36:57;101474.53;;;13.85;100.00
71770;BME280;66386;52.122;5.420;2023-08-08T01:39:27;101470.25;;;13.84;100.00
71770;BME280;66386;52.122;5.420;2023-08-08T01:41:54;101473.91;;;13.80;100.00
71770;BME280;66386;52.122;5.420;2023-08-08T01:44:22;101467.94;;;13.78;100.00
71770;BME280;66386;52.122;5.420;2023-08-08T01:46:52;101470.53;;;13.78;100.00
71770;BME280;66386;52.122;5.420;2023-08-08T01:49:19;101466.31;;;13.75;100.00
71770;BME280;66386;52.122;5.420;2023-08-08T01:51:46;101468.97;;;13.74;100.00
71770;BME280;66386;52.122;5.420;2023-08-08T01:54:13;101463.03;;;13.72;100.00
71770;BME280;66386;52.122;5.420;2023-08-08T01:56:40;101463.84;;;13.72;100.00
71770;BME280;66386;52.122;5.420;2023-08-08T01:59:06;101456.03;;;13.74;100.00
71770;BME280;66386;52.122;5.420;2023-08-08T02:01:33;101462.06;;;13.74;100.00
71770;BME280;66386;52.122;5.420;2023-08-08T02:03:59;101455.97;;;13.75;100.00
71770;BME280;66386;52.122;5.420;2023-08-08T02:06:26;101455.22;;;13.73;100.00
71770;BME280;66386;52.122;5.420;2023-08-08T02:08:52;101450.88;;;13.74;100.00
71770;BME280;66386;52.122;5.420;2023-08-08T02:11:19;101455.22;;;13.73;100.00
71770;BME280;66386;52.122;5.420;2023-08-08T02:13:47;101450.88;;;13.74;100.00
71770;BME280;66386;52.122;5.420;2023-08-08T02:16:15;101445.72;;;13.74;100.00
71770;BME280;66386;52.122;5.420;2023-08-08T02:18:41;101453.44;;;13.74;100.00
71770;BME280;66386;52.122;5.420;2023-08-08T02:21:08;101441.53;;;13.71;100.00
71770;BME280;66386;52.122;5.420;2023-08-08T02:23:34;101442.47;;;13.69;100.00
71770;BME280;66386;52.122;5.420;2023-08-08T02:26:01;101448.53;;;13.68;100.00
71770;BME280;66386;52.122;5.420;2023-08-08T02:28:28;101442.53;;;13.67;100.00
71770;BME280;66386;52.122;5.420;2023-08-08T02:30:55;101441.66;;;13.68;100.00
71770;BME280;66386;52.122;5.420;2023-08-08T02:33:21;101444.25;;;13.67;100.00
71770;BME280;66386;52.122;5.420;2023-08-08T02:35:48;101438.34;;;13.65;100.00
71770;BME280;66386;52.122;5.420;2023-08-08T02:38:15;101435.75;;;13.65;100.00
71770;BME280;66386;52.122;5.420;2023-08-08T02:40:41;101433.22;;;13.63;100.00
71770;BME280;66386;52.122;5.420;2023-08-08T02:43:08;101432.34;;;13.64;100.00
71770;BME280;66386;52.122;5.420;2023-08-08T02:45:35;101434.94;;;13.64;100.00
71770;BME280;66386;52.122;5.420;2023-08-08T02:48:02;101428.13;;;13.61;100.00
71770;BME280;66386;52.122;5.420;2023-08-08T02:50:29;101433.41;;;13.58;100.00
71770;BME280;66386;52.122;5.420;2023-08-08T02:52:56;101439.59;;;13.54;100.00
71770;BME280;66386;52.122;5.420;2023-08-08T02:55:22;101431.97;;;13.51;100.00
71770;BME280;66386;52.122;5.420;2023-08-08T02:57:49;101432.09;;;13.48;100.00
71770;BME280;66386;52.122;5.420;2023-08-08T03:00:15;101435.66;;;13.46;100.00
71770;BME280;66386;52.122;5.420;2023-08-08T03:02:42;101428.66;;;13.48;100.00
71770;BME280;66386;52.122;5.420;2023-08-08T03:05:08;101431.31;;;13.46;100.00
71770;BME280;66386;52.122;5.420;2023-08-08T03:07:35;101424.38;;;13.48;100.00
71770;BME280;66386;52.122;5.420;2023-08-08T03:10:02;101425.31;;;13.46;100.00
71770;BME280;66386;52.122;5.420;2023-08-08T03:12:29;101418.47;;;13.44;100.00
71770;BME280;66386;52.122;5.420;2023-08-08T03:14:55;101420.22;;;13.44;100.00
71770;BME280;66386;52.122;5.420;2023-08-08T03:17:23;101423.69;;;13.43;100.00
71770;BME280;66386;52.122;5.420;2023-08-08T03:19:49;101422.84;;;13.42;100.00
71770;BME280;66386;52.122;5.420;2023-08-08T03:22:16;101421.09;;;13.43;100.00
71770;BME280;66386;52.122;5.420;2023-08-08T03:24:43;101418.53;;;13.43;100.00
71770;BME280;66386;52.122;5.420;2023-08-08T03:27:09;101417.63;;;13.44;100.00
71770;BME280;66386;52.122;5.420;2023-08-08T03:29:36;101421.97;;;13.43;100.00
71770;BME280;66386;52.122;5.420;2023-08-08T03:32:03;101421.09;;;13.43;100.00
71770;BME280;66386;52.122;5.420;2023-08-08T03:34:30;101421.16;;;13.41;100.00
71770;BME280;66386;52.122;5.420;2023-08-08T03:36:57;101421.09;;;13.43;100.00
71770;BME280;66386;52.122;5.420;2023-08-08T03:39:23;101419.50;;;13.40;100.00
71770;BME280;66386;52.122;5.420;2023-08-08T03:41:50;101410.91;;;13.40;100.00
71770;BME280;66386;52.122;5.420;2023-08-08T03:44:17;101415.25;;;13.39;100.00
71770;BME280;66386;52.122;5.420;2023-08-08T03:46:44;101396.38;;;13.37;100.00
71770;BME280;66386;52.122;5.420;2023-08-08T03:49:11;101413.53;;;13.38;100.00
71770;BME280;66386;52.122;5.420;2023-08-08T03:51:37;101405.81;;;13.38;100.00
71770;BME280;66386;52.122;5.420;2023-08-08T03:54:04;101401.59;;;13.36;100.00
71770;BME280;66386;52.122;5.420;2023-08-08T03:56:30;101399.97;;;13.33;100.00
71770;BME280;66386;52.122;5.420;2023-08-08T03:58:57;101412.00;;;13.33;100.00
71770;BME280;66386;52.122;5.420;2023-08-08T04:01:24;101399.09;;;13.33;100.00
71770;BME280;66386;52.122;5.420;2023-08-08T04:03:51;101406.03;;;13.32;100.00
71770;BME280;66386;52.122;5.420;2023-08-08T04:06:17;101400.06;;;13.30;100.00
71770;BME280;66386;52.122;5.420;2023-08-08T04:08:44;101402.63;;;13.30;100.00
71770;BME280;66386;52.122;5.420;2023-08-08T04:11:10;101394.94;;;13.28;100.00
71770;BME280;66386;52.122;5.420;2023-08-08T04:13:37;101395.06;;;13.25;100.00
71770;BME280;66386;52.122;5.420;2023-08-08T04:16:03;101387.47;;;13.22;100.00
71770;BME280;66386;52.122;5.420;2023-08-08T04:18:30;101390.16;;;13.19;100.00
71770;BME280;66386;52.122;5.420;2023-08-08T04:20:56;101381.72;;;13.16;100.00
71770;BME280;66386;52.122;5.420;2023-08-08T04:23:23;101385.25;;;13.13;100.00
71770;BME280;66386;52.122;5.420;2023-08-08T04:25:53;101377.69;;;13.08;100.00
71770;BME280;66386;52.122;5.420;2023-08-08T04:28:19;101384.63;;;13.06;100.00
71770;BME280;66386;52.122;5.420;2023-08-08T04:30:46;101389.09;;;13.03;100.00
71770;BME280;66386;52.122;5.420;2023-08-08T04:33:12;101390.88;;;13.01;100.00
71770;BME280;66386;52.122;5.420;2023-08-08T04:35:39;101395.97;;;13.02;100.00
71770;BME280;66386;52.122;5.420;2023-08-08T04:38:06;101391.66;;;13.03;100.00
71770;BME280;66386;52.122;5.420;2023-08-08T04:40:32;101399.28;;;13.06;100.00
71770;BME280;66386;52.122;5.420;2023-08-08T04:43:01;101398.28;;;13.10;100.00
71770;BME280;66386;52.122;5.420;2023-08-08T04:45:27;101398.16;;;13.13;100.00
71770;BME280;66386;52.122;5.420;2023-08-08T04:47:55;101391.19;;;13.15;100.00
71770;BME280;66386;52.122;5.420;2023-08-08T04:50:22;101392.88;;;13.16;100.00
71770;BME280;66386;52.122;5.420;2023-08-08T04:52:48;101384.22;;;13.17;100.00
71770;BME280;66386;52.122;5.420;2023-08-08T04:55:15;101380.66;;;13.20;100.00
71770;BME280;66386;52.122;5.420;2023-08-08T04:57:41;101378.81;;;13.23;100.00
71770;BME280;66386;52.122;5.420;2023-08-08T05:00:08;101382.28;;;13.22;100.00
71770;BME280;66386;52.122;5.420;2023-08-08T05:02:35;101381.34;;;13.25;100.00
71770;BME280;66386;52.122;5.420;2023-08-08T05:05:02;101381.28;;;13.26;100.00
71770;BME280;66386;52.122;5.420;2023-08-08T05:07:30;101371.78;;;13.27;100.00
71770;BME280;66386;52.122;5.420;2023-08-08T05:09:57;101379.41;;;13.30;100.00
71770;BME280;66386;52.122;5.420;2023-08-08T05:12:23;101382.78;;;13.32;100.00
71770;BME280;66386;52.122;5.420;2023-08-08T05:14:51;101379.31;;;13.33;100.00
71770;BME280;66386;52.122;5.420;2023-08-08T05:17:18;101381.78;;;13.36;100.00
71770;BME280;66386;52.122;5.420;2023-08-08T05:19:45;101386.78;;;13.41;100.00
71770;BME280;66386;52.122;5.420;2023-08-08T05:22:11;101391.81;;;13.44;100.00
71770;BME280;66386;52.122;5.420;2023-08-08T05:24:38;101384.84;;;13.46;100.00
71770;BME280;66386;52.122;5.420;2023-08-08T05:27:05;101387.31;;;13.49;100.00
71770;BME280;66386;52.122;5.420;2023-08-08T05:29:31;101392.56;;;13.46;100.00
71770;BME280;66386;52.122;5.420;2023-08-08T05:31:58;101393.50;;;13.45;100.00
71770;BME280;66386;52.122;5.420;2023-08-08T05:34:25;101399.44;;;13.47;100.00
71770;BME280;66386;52.122;5.420;2023-08-08T05:36:52;101394.31;;;13.46;100.00
71770;BME280;66386;52.122;5.420;2023-08-08T05:39:38;101398.53;;;13.48;100.00
71770;BME280;66386;52.122;5.420;2023-08-08T05:42:05;101408.88;;;13.48;100.00
71770;BME280;66386;52.122;5.420;2023-08-08T05:44:32;101388.16;;;13.50;100.00
71770;BME280;66386;52.122;5.420;2023-08-08T05:46:59;101391.50;;;13.52;100.00
71770;BME280;66386;52.122;5.420;2023-08-08T05:49:25;101402.75;;;13.51;100.00
71770;BME280;66386;52.122;5.420;2023-08-08T05:51:52;101402.56;;;13.55;100.00
71770;BME280;66386;52.122;5.420;2023-08-08T05:54:18;101403.31;;;13.57;100.00
71770;BME280;66386;52.122;5.420;2023-08-08T05:56:45;101403.19;;;13.60;100.00
71770;BME280;66386;52.122;5.420;2023-08-08T05:59:12;101404.88;;;13.61;100.00
71770;BME280;66386;52.122;5.420;2023-08-08T06:01:38;101401.34;;;13.64;100.00
71770;BME280;66386;52.122;5.420;2023-08-08T06:04:05;101407.34;;;13.65;100.00
71770;BME280;66386;52.122;5.420;2023-08-08T06:06:32;101408.97;;;13.67;100.00
71770;BME280;66386;52.122;5.420;2023-08-08T06:08:58;101404.50;;;13.71;100.00
71770;BME280;66386;52.122;5.420;2023-08-08T06:11:25;101406.88;;;13.75;100.00
71770;BME280;66386;52.122;5.420;2023-08-08T06:13:52;101408.44;;;13.79;100.00
71770;BME280;66386;52.122;5.420;2023-08-08T06:16:18;101411.75;;;13.83;100.00
71770;BME280;66386;52.122;5.420;2023-08-08T06:18:45;101403.81;;;13.88;100.00
71770;BME280;66386;52.122;5.420;2023-08-08T06:21:11;101413.13;;;13.92;99.75
71770;BME280;66386;52.122;5.420;2023-08-08T06:23:38;101415.50;;;13.96;98.88
71770;BME280;66386;52.122;5.420;2023-08-08T06:26:05;101419.31;;;14.08;98.25
71770;BME280;66386;52.122;5.420;2023-08-08T06:28:31;101417.41;;;15.66;94.07
71770;BME280;66386;52.122;5.420;2023-08-08T06:30:58;101420.25;;;17.59;86.03
71770;BME280;66386;52.122;5.420;2023-08-08T06:33:25;101414.28;;;18.61;78.65
71770;BME280;66386;52.122;5.420;2023-08-08T06:35:51;101415.59;;;19.10;74.14
71770;BME280;66386;52.122;5.420;2023-08-08T06:38:18;101417.16;;;19.12;72.63
71770;BME280;66386;52.122;5.420;2023-08-08T06:40:45;101417.94;;;19.14;73.23
71770;BME280;66386;52.122;5.420;2023-08-08T06:43:11;101417.41;;;18.80;73.20
71770;BME280;66386;52.122;5.420;2023-08-08T06:45:38;101423.91;;;18.73;71.89
71770;BME280;66386;52.122;5.420;2023-08-08T06:48:05;101415.00;;;18.48;73.76
71770;BME280;66386;52.122;5.420;2023-08-08T06:50:32;101420.13;;;18.21;76.01
71770;BME280;66386;52.122;5.420;2023-08-08T06:52:58;101423.00;;;18.02;75.01
71770;BME280;66386;52.122;5.420;2023-08-08T06:55:25;101427.56;;;17.83;76.14
71770;BME280;66386;52.122;5.420;2023-08-08T06:57:52;101425.97;;;17.50;74.20
71770;BME280;66386;52.122;5.420;2023-08-08T07:00:19;101434.91;;;17.30;75.23
71770;BME280;66386;52.122;5.420;2023-08-08T07:02:45;101421.34;;;17.08;75.98
71770;BME280;66386;52.122;5.420;2023-08-08T07:05:12;101427.28;;;17.10;75.31
71770;BME280;66386;52.122;5.420;2023-08-08T07:07:38;101419.31;;;17.14;75.51
71770;BME280;66386;52.122;5.420;2023-08-08T07:10:05;101426.34;;;17.27;75.61
71770;BME280;66386;52.122;5.420;2023-08-08T07:12:33;101415.88;;;17.29;73.97
71770;BME280;66386;52.122;5.420;2023-08-08T07:15:00;101420.56;;;17.38;71.23
71770;BME280;66386;52.122;5.420;2023-08-08T07:17:26;101422.31;;;17.38;73.07
71770;BME280;66386;52.122;5.420;2023-08-08T07:19:53;101428.59;;;17.50;75.41
71770;BME280;66386;52.122;5.420;2023-08-08T07:22:19;101415.22;;;17.56;71.93
71770;BME280;66386;52.122;5.420;2023-08-08T07:24:46;101419.44;;;17.58;72.46
71770;BME280;66386;52.122;5.420;2023-08-08T07:27:13;101418.00;;;17.53;72.59
71770;BME280;66386;52.122;5.420;2023-08-08T07:29:40;101419.66;;;17.70;69.59
71770;BME280;66386;52.122;5.420;2023-08-08T07:32:07;101397.00;;;17.72;69.06
71770;BME280;66386;52.122;5.420;2023-08-08T07:34:33;101404.16;;;17.83;69.44
71770;BME280;66386;52.122;5.420;2023-08-08T07:37:00;101397.50;;;17.93;68.25
71770;BME280;66386;52.122;5.420;2023-08-08T07:39:26;101396.59;;;17.94;68.40
71770;BME280;66386;52.122;5.420;2023-08-08T07:41:54;101399.59;;;18.02;68.70
71770;BME280;66386;52.122;5.420;2023-08-08T07:44:20;101397.75;;;18.19;68.54
71770;BME280;66386;52.122;5.420;2023-08-08T07:46:47;101402.38;;;17.99;67.76
71770;BME280;66386;52.122;5.420;2023-08-08T07:49:14;101394.38;;;18.02;68.58
71770;BME280;66386;52.122;5.420;2023-08-08T07:51:40;101391.97;;;18.13;66.14
71770;BME280;66386;52.122;5.420;2023-08-08T07:54:07;101390.09;;;18.01;67.10
71770;BME280;66386;52.122;5.420;2023-08-08T07:56:35;101395.31;;;18.01;65.35
71770;BME280;66386;52.122;5.420;2023-08-08T07:59:02;101399.78;;;18.28;68.08
71770;BME280;66386;52.122;5.420;2023-08-08T08:01:29;101400.66;;;18.84;65.37
71770;BME280;66386;52.122;5.420;2023-08-08T08:03:56;101399.72;;;18.86;63.83
71770;BME280;66386;52.122;5.420;2023-08-08T08:06:22;101403.75;;;18.77;65.88
71770;BME280;66386;52.122;5.420;2023-08-08T08:08:49;101398.63;;;18.90;63.25
71770;BME280;66386;52.122;5.420;2023-08-08T08:11:15;101401.72;;;18.67;64.91
71770;BME280;66386;52.122;5.420;2023-08-08T08:13:43;101404.16;;;18.42;63.42
71770;BME280;66386;52.122;5.420;2023-08-08T08:16:09;101393.06;;;18.53;62.28
71770;BME280;66386;52.122;5.420;2023-08-08T08:18:36;101386.53;;;18.89;63.45
71770;BME280;66386;52.122;5.420;2023-08-08T08:21:03;101395.19;;;18.89;61.92
71770;BME280;66386;52.122;5.420;2023-08-08T08:23:29;101389.91;;;18.62;61.30
71770;BME280;66386;52.122;5.420;2023-08-08T08:25:58;101394.19;;;18.48;60.63
71770;BME280;66386;52.122;5.420;2023-08-08T08:28:26;101389.81;;;18.63;61.28
71770;BME280;66386;52.122;5.420;2023-08-08T08:30:53;101398.47;;;18.64;59.62
71770;BME280;66386;52.122;5.420;2023-08-08T08:33:19;101397.72;;;18.62;61.99
71770;BME280;66386;52.122;5.420;2023-08-08T08:35:46;101391.63;;;19.05;60.87
71770;BME280;66386;52.122;5.420;2023-08-08T08:38:13;101391.63;;;19.32;61.82
71770;BME280;66386;52.122;5.420;2023-08-08T08:40:41;101386.75;;;19.53;60.27
71770;BME280;66386;52.122;5.420;2023-08-08T08:43:09;101401.31;;;19.96;58.85
71770;BME280;66386;52.122;5.420;2023-08-08T08:45:40;101389.22;;;19.42;57.62
71770;BME280;66386;52.122;5.420;2023-08-08T08:48:10;101395.50;;;19.12;58.04
71770;BME280;66386;52.122;5.420;2023-08-08T08:50:44;101396.13;;;19.15;59.14
71770;BME280;66386;52.122;5.420;2023-08-08T08:53:20;101404.91;;;19.54;58.67
71770;BME280;66386;52.122;5.420;2023-08-08T08:55:50;101397.06;;;19.54;57.37
71770;BME280;66386;52.122;5.420;2023-08-08T08:58:17;101406.81;;;19.25;55.40
71770;BME280;66386;52.122;5.420;2023-08-08T09:00:46;101410.44;;;19.23;56.30
71770;BME280;66386;52.122;5.420;2023-08-08T09:03:14;101413.47;;;19.02;57.98
71770;BME280;66386;52.122;5.420;2023-08-08T09:05:42;101410.78;;;19.04;57.67
71770;BME280;66386;52.122;5.420;2023-08-08T09:08:11;101410.09;;;19.14;59.66
71770;BME280;66386;52.122;5.420;2023-08-08T09:10:40;101415.25;;;19.29;59.78
71770;BME280;66386;52.122;5.420;2023-08-08T09:13:07;101411.09;;;19.26;57.13
71770;BME280;66386;52.122;5.420;2023-08-08T09:15:36;101405.13;;;18.97;56.30
71770;BME280;66386;52.122;5.420;2023-08-08T09:18:03;101405.69;;;18.88;56.35
71770;BME280;66386;52.122;5.420;2023-08-08T09:20:30;101408.75;;;18.80;57.28
71770;BME280;66386;52.122;5.420;2023-08-08T09:22:57;101407.09;;;18.93;58.08
71770;BME280;66386;52.122;5.420;2023-08-08T09:25:25;101403.66;;;19.60;57.44
71770;BME280;66386;52.122;5.420;2023-08-08T09:27:53;101399.41;;;19.72;55.43
71770;BME280;66386;52.122;5.420;2023-08-08T09:30:19;101403.09;;;19.95;54.42
71770;BME280;66386;52.122;5.420;2023-08-08T09:32:47;101408.22;;;20.10;54.51
71770;BME280;66386;52.122;5.420;2023-08-08T09:35:15;101402.59;;;20.29;55.55
71770;BME280;66386;52.122;5.420;2023-08-08T09:37:42;101400.78;;;20.29;54.76
71770;BME280;66386;52.122;5.420;2023-08-08T09:40:09;101409.53;;;20.41;54.53
71770;BME280;66386;52.122;5.420;2023-08-08T09:42:40;101404.31;;;20.67;54.79
71770;BME280;66386;52.122;5.420;2023-08-08T09:45:08;101400.91;;;21.15;52.54
71770;BME280;66386;52.122;5.420;2023-08-08T09:47:37;101401.34;;;21.33;51.08
71770;BME280;66386;52.122;5.420;2023-08-08T09:50:04;101398.28;;;20.90;50.63
71770;BME280;66386;52.122;5.420;2023-08-08T09:52:33;101415.63;;;20.29;51.22
71770;BME280;66386;52.122;5.420;2023-08-08T09:55:01;101416.47;;;20.16;53.60
71770;BME280;66386;52.122;5.420;2023-08-08T09:57:28;101418.00;;;20.57;53.52
71770;BME280;66386;52.122;5.420;2023-08-08T09:59:57;101415.31;;;20.08;52.35
71770;BME280;66386;52.122;5.420;2023-08-08T10:02:24;101421.91;;;19.60;53.61
71770;BME280;66386;52.122;5.420;2023-08-08T10:04:52;101421.69;;;19.50;55.38
71770;BME280;66386;52.122;5.420;2023-08-08T10:07:19;101411.94;;;19.80;57.01
71770;BME280;66386;52.122;5.420;2023-08-08T10:09:46;101420.22;;;20.25;56.12
71770;BME280;66386;52.122;5.420;2023-08-08T10:12:14;101432.88;;;20.18;53.57
71770;BME280;66386;52.122;5.420;2023-08-08T10:14:43;101429.50;;;20.16;53.46
71770;BME280;66386;52.122;5.420;2023-08-08T10:17:14;101424.94;;;20.33;54.30
71770;BME280;66386;52.122;5.420;2023-08-08T10:20:00;101428.63;;;20.54;53.69
71770;BME280;66386;52.122;5.420;2023-08-08T10:22:35;101416.88;;;20.23;52.20
71770;BME280;66386;52.122;5.420;2023-08-08T10:25:03;101421.69;;;20.03;54.99
71770;BME280;66386;52.122;5.420;2023-08-08T10:27:34;101431.19;;;20.04;54.00
71770;BME280;66386;52.122;5.420;2023-08-08T10:30:08;101428.78;;;20.14;53.38
71770;BME280;66386;52.122;5.420;2023-08-08T10:32:42;101434.72;;;20.16;54.63
71770;BME280;66386;52.122;5.420;2023-08-08T10:35:10;101432.25;;;20.02;53.08
71770;BME280;66386;52.122;5.420;2023-08-08T10:37:38;101443.38;;;19.91;53.43
71770;BME280;66386;52.122;5.420;2023-08-08T10:40:06;101426.31;;;19.73;55.10
71770;BME280;66386;52.122;5.420;2023-08-08T10:42:44;101426.66;;;19.81;56.01
71770;BME280;66386;52.122;5.420;2023-08-08T10:45:14;101438.81;;;19.95;54.58
71770;BME280;66386;52.122;5.420;2023-08-08T10:47:42;101436.91;;;19.84;53.92
71770;BME280;66386;52.122;5.420;2023-08-08T10:50:14;101432.06;;;19.78;54.99
71770;BME280;66386;52.122;5.420;2023-08-08T10:55:20;101422.63;;;20.28;54.01
71770;BME280;66386;52.122;5.420;2023-08-08T11:00:24;101432.44;;;20.37;51.86
71770;BME280;66386;52.122;5.420;2023-08-08T11:02:51;101430.03;;;20.47;51.72
71770;BME280;66386;52.122;5.420;2023-08-08T11:05:19;101437.22;;;20.69;53.15
71770;BME280;66386;52.122;5.420;2023-08-08T11:07:46;101426.22;;;20.77;51.85
71770;BME280;66386;52.122;5.420;2023-08-08T11:10:13;101447.34;;;20.48;51.33
71770;BME280;66386;52.122;5.420;2023-08-08T11:12:40;101436.63;;;20.40;52.70
71770;BME280;66386;52.122;5.420;2023-08-08T11:15:07;101430.53;;;20.27;52.34
71770;BME280;66386;52.122;5.420;2023-08-08T11:17:34;101435.78;;;20.14;53.02
71770;BME280;66386;52.122;5.420;2023-08-08T11:20:01;101435.78;;;20.01;53.45
71770;BME280;66386;52.122;5.420;2023-08-08T11:22:28;101429.72;;;20.39;53.20
71770;BME280;66386;52.122;5.420;2023-08-08T11:24:54;101433.84;;;20.54;51.97
71770;BME280;66386;52.122;5.420;2023-08-08T11:27:23;101419.06;;;20.42;52.16
71770;BME280;66386;52.122;5.420;2023-08-08T11:29:56;101423.97;;;20.47;53.07
71770;BME280;66386;52.122;5.420;2023-08-08T11:32:27;101427.50;;;20.58;51.10
71770;BME280;66386;52.122;5.420;2023-08-08T11:34:55;101424.94;;;20.33;52.30
71770;BME280;66386;52.122;5.420;2023-08-08T11:37:21;101420.53;;;20.08;52.15
71770;BME280;66386;52.122;5.420;2023-08-08T11:39:48;101418.78;;;20.08;51.70
71770;BME280;66386;52.122;5.420;2023-08-08T11:42:15;101426.38;;;19.98;53.70
71770;BME280;66386;52.122;5.420;2023-08-08T11:44:42;101416.03;;;20.35;53.84
71770;BME280;66386;52.122;5.420;2023-08-08T11:47:08;101411.00;;;20.71;54.33
71770;BME280;66386;52.122;5.420;2023-08-08T11:49:40;101417.56;;;20.77;53.24
71770;BME280;66386;52.122;5.420;2023-08-08T11:52:07;101412.19;;;20.91;52.85
71770;BME280;66386;52.122;5.420;2023-08-08T11:54:37;101400.28;;;21.11;50.73
71770;BME280;66386;52.122;5.420;2023-08-08T11:57:04;101402.31;;;21.07;50.96
71770;BME280;66386;52.122;5.420;2023-08-08T11:59:31;101404.69;;;21.10;53.58
71770;BME280;66386;52.122;5.420;2023-08-08T12:01:58;101413.06;;;21.27;51.10
71770;BME280;66386;52.122;5.420;2023-08-08T12:04:25;101409.88;;;21.35;52.44
71770;BME280;66386;52.122;5.420;2023-08-08T12:07:03;101404.13;;;21.18;52.97
71770;BME280;66386;52.122;5.420;2023-08-08T12:09:33;101411.25;;;21.16;52.35
71770;BME280;66386;52.122;5.420;2023-08-08T12:12:00;101411.34;;;20.90;52.38
71770;BME280;66386;52.122;5.420;2023-08-08T12:14:27;101409.88;;;20.86;51.17
71770;BME280;66386;52.122;5.420;2023-08-08T12:16:54;101400.81;;;20.79;51.79
71770;BME280;66386;52.122;5.420;2023-08-08T12:19:25;101411.38;;;20.78;54.26
71770;BME280;66386;52.122;5.420;2023-08-08T12:21:51;101402.94;;;20.98;54.34
71770;BME280;66386;52.122;5.420;2023-08-08T12:24:18;101397.16;;;21.30;52.04
71770;BME280;66386;52.122;5.420;2023-08-08T12:26:45;101406.88;;;21.52;50.96
71770;BME280;66386;52.122;5.420;2023-08-08T12:29:12;101407.19;;;21.72;51.07
71770;BME280;66386;52.122;5.420;2023-08-08T12:31:39;101394.31;;;21.57;51.06
71770;BME280;66386;52.122;5.420;2023-08-08T12:34:05;101404.81;;;21.09;52.37
71770;BME280;66386;52.122;5.420;2023-08-08T12:36:32;101419.88;;;20.55;52.94
71770;BME280;66386;52.122;5.420;2023-08-08T12:38:59;101412.28;;;20.39;53.91
71770;BME280;66386;52.122;5.420;2023-08-08T12:41:25;101412.16;;;20.41;54.91
71770;BME280;66386;52.122;5.420;2023-08-08T12:43:52;101418.13;;;20.43;55.15
71770;BME280;66386;52.122;5.420;2023-08-08T12:46:19;101410.56;;;20.51;54.38
71770;BME280;66386;52.122;5.420;2023-08-08T12:48:45;101412.91;;;20.43;54.62
71770;BME280;66386;52.122;5.420;2023-08-08T12:51:12;101419.81;;;20.31;53.60
71770;BME280;66386;52.122;5.420;2023-08-08T12:53:38;101417.59;;;20.51;54.30